Airfield :
LOGIN :

Register | Disclaimer

   EN    FR    IT 

 










Legend :    VFR   Marginal VFR   IFR   Intensive IFR   Very Intensive IFR
Visi :
Ceiling :
>= 8 km
>= 3000ft
5 to 8 km
1000 to 3000 ft
1500m to 5 km
500 to 1000 ft
800 to 1500m
200 to 500 ft
< 800m
< 200 ft
Symbols :   Thunderstorms  Fog  Heavy snow  Heavy precipitations  Wind > 20 kt
SIGMETs :     Misc.  Thunderstorms  Icing  Turbulence  Mountain Waves  Volcanic Ashes







- Airport Elevation : 135 ft
- IATA code : EDI
- Download approach charts


EGPH - Edinburgh

CURRENT METAR :
  • 190420Z 24003KT CAVOK M02/M04 Q1022

EXPIRED METARs :
  • 190350Z VRB03KT CAVOK M01/M03 Q1021
  • 190320Z 25006KT CAVOK M00/M02 Q1021
  • 190250Z 28003KT CAVOK M01/M03 Q1021
  • 190220Z 21004KT CAVOK M00/M02 Q1021
  • 190150Z 27003KT CAVOK M00/M02 Q1021

TAF TAF EGPH
Valid from the 19 at 00:00 until the 20 at 00:00 UTC


182254Z 1900/1924 25006KT CAVOK
BECMG 1916/1919 BKN025
TEMPO 1916/1919 8000 -RA
TEMPO 1919/1924 6000 RA BKN012
ATIS : +44 131 339 2823
No reported NOTAMs for that airfield.
1 SIGMET reported for the Scottish FIR (EGPX) :
 
Severe turbulence
EGPX SIGMET 01 VALID 190330/190730 EGRR
EGPX SCOTTISH FIR SEV TURB FCST WI N5939 E00034 - N5700 E00500 - N5512 E00500 - N5724 E00028 - N5939 E00034 SFC/FL060 MOV SSE 10KT NC=



MET'MAP, your aeronautical weather chart ! - Copyright ORBIFLY December 2007 - Disclaimer

ORBIFLY MET'MAP TEAM :

Programming & Development : Alexandra Zaïnal
Concept & Development : Baudouin d'Aumeries
Co-Development & Prog : Marc-Olivier Méhu
Technical & hardware support : Manuel Goepfert

Contact : metmap@orbifly.com




SOURCES & CREDITS :

   NOAA